sensor_id;sensor_type;location;lat;lon;timestamp;P1;durP1;ratioP1;P2;durP2;ratioP2
12222;SDS011;6174;49.058;8.524;2023-02-18T06:00:50;3.07;;;2.80;;
12222;SDS011;6174;49.058;8.524;2023-02-18T06:03:16;2.67;;;2.47;;
12222;SDS011;6174;49.058;8.524;2023-02-18T06:05:43;2.80;;;2.60;;
12222;SDS011;6174;49.058;8.524;2023-02-18T06:08:11;2.50;;;2.30;;
12222;SDS011;6174;49.058;8.524;2023-02-18T06:10:38;2.80;;;2.60;;
12222;SDS011;6174;49.058;8.524;2023-02-18T06:13:05;2.80;;;2.60;;
12222;SDS011;6174;49.058;8.524;2023-02-18T06:15:32;2.97;;;2.40;;
12222;SDS011;6174;49.058;8.524;2023-02-18T06:18:00;2.60;;;2.40;;
12222;SDS011;6174;49.058;8.524;2023-02-18T06:20:27;3.10;;;2.83;;
12222;SDS011;6174;49.058;8.524;2023-02-18T06:22:54;2.80;;;2.60;;
12222;SDS011;6174;49.058;8.524;2023-02-18T06:25:21;3.30;;;3.00;;
12222;SDS011;6174;49.058;8.524;2023-02-18T06:27:48;2.43;;;2.23;;
12222;SDS011;6174;49.058;8.524;2023-02-18T06:30:16;2.50;;;2.30;;
12222;SDS011;6174;49.058;8.524;2023-02-18T06:32:43;2.80;;;2.60;;
12222;SDS011;6174;49.058;8.524;2023-02-18T06:35:11;2.70;;;2.50;;
12222;SDS011;6174;49.058;8.524;2023-02-18T06:37:38;2.77;;;2.43;;
12222;SDS011;6174;49.058;8.524;2023-02-18T06:40:05;2.90;;;2.70;;
12222;SDS011;6174;49.058;8.524;2023-02-18T06:42:32;2.50;;;2.30;;
12222;SDS011;6174;49.058;8.524;2023-02-18T06:44:59;2.50;;;2.30;;
12222;SDS011;6174;49.058;8.524;2023-02-18T06:47:26;2.27;;;2.10;;
12222;SDS011;6174;49.058;8.524;2023-02-18T06:49:52;2.70;;;2.50;;
12222;SDS011;6174;49.058;8.524;2023-02-18T06:52:22;2.60;;;2.40;;
12222;SDS011;6174;49.058;8.524;2023-02-18T06:54:48;2.87;;;2.67;;
12222;SDS011;6174;49.058;8.524;2023-02-18T06:57:15;3.33;;;3.03;;
12222;SDS011;6174;49.058;8.524;2023-02-18T06:59:42;2.53;;;2.33;;
12222;SDS011;6174;49.058;8.524;2023-02-18T07:02:09;2.43;;;2.23;;
12222;SDS011;6174;49.058;8.524;2023-02-18T07:04:37;2.83;;;2.63;;
12222;SDS011;6174;49.058;8.524;2023-02-18T07:07:04;2.40;;;2.20;;
12222;SDS011;6174;49.058;8.524;2023-02-18T07:09:32;2.37;;;2.27;;
12222;SDS011;6174;49.058;8.524;2023-02-18T07:11:59;3.63;;;2.60;;
12222;SDS011;6174;49.058;8.524;2023-02-18T07:14:26;2.10;;;2.00;;
12222;SDS011;6174;49.058;8.524;2023-02-18T07:16:53;2.30;;;2.10;;
12222;SDS011;6174;49.058;8.524;2023-02-18T07:19:19;2.13;;;1.90;;
12222;SDS011;6174;49.058;8.524;2023-02-18T07:21:46;2.40;;;2.20;;
12222;SDS011;6174;49.058;8.524;2023-02-18T07:24:13;2.57;;;2.10;;
12222;SDS011;6174;49.058;8.524;2023-02-18T07:26:41;2.70;;;2.37;;
12222;SDS011;6174;49.058;8.524;2023-02-18T07:29:08;2.00;;;1.90;;
12222;SDS011;6174;49.058;8.524;2023-02-18T07:31:34;2.60;;;2.40;;
12222;SDS011;6174;49.058;8.524;2023-02-18T07:34:02;2.17;;;2.03;;
12222;SDS011;6174;49.058;8.524;2023-02-18T07:36:29;2.57;;;2.37;;
12222;SDS011;6174;49.058;8.524;2023-02-18T07:38:56;2.40;;;2.13;;
12222;SDS011;6174;49.058;8.524;2023-02-18T07:41:22;2.37;;;2.17;;
12222;SDS011;6174;49.058;8.524;2023-02-18T07:43:51;1.97;;;1.87;;
12222;SDS011;6174;49.058;8.524;2023-02-18T07:46:17;2.23;;;2.03;;
12222;SDS011;6174;49.058;8.524;2023-02-18T07:48:44;2.30;;;2.10;;
12222;SDS011;6174;49.058;8.524;2023-02-18T07:51:11;2.20;;;2.00;;
12222;SDS011;6174;49.058;8.524;2023-02-18T07:53:38;2.20;;;2.10;;
12222;SDS011;6174;49.058;8.524;2023-02-18T07:56:05;1.93;;;1.77;;
12222;SDS011;6174;49.058;8.524;2023-02-18T07:58:33;2.30;;;2.10;;
12222;SDS011;6174;49.058;8.524;2023-02-18T08:01:04;2.47;;;2.27;;
12222;SDS011;6174;49.058;8.524;2023-02-18T08:03:32;2.20;;;2.00;;
12222;SDS011;6174;49.058;8.524;2023-02-18T08:05:59;2.00;;;1.90;;
12222;SDS011;6174;49.058;8.524;2023-02-18T08:08:29;2.50;;;2.20;;
12222;SDS011;6174;49.058;8.524;2023-02-18T08:10:57;2.30;;;2.10;;
12222;SDS011;6174;49.058;8.524;2023-02-18T08:13:27;2.33;;;2.07;;
12222;SDS011;6174;49.058;8.524;2023-02-18T08:15:53;2.73;;;2.03;;
12222;SDS011;6174;49.058;8.524;2023-02-18T08:18:22;2.20;;;2.00;;
12222;SDS011;6174;49.058;8.524;2023-02-18T08:20:51;1.70;;;1.60;;
12222;SDS011;6174;49.058;8.524;2023-02-18T08:23:20;2.20;;;2.00;;
12222;SDS011;6174;49.058;8.524;2023-02-18T08:25:50;1.70;;;1.60;;
12222;SDS011;6174;49.058;8.524;2023-02-18T08:28:18;2.17;;;1.97;;
12222;SDS011;6174;49.058;8.524;2023-02-18T08:30:47;2.20;;;1.77;;
12222;SDS011;6174;49.058;8.524;2023-02-18T08:33:15;2.17;;;1.97;;
12222;SDS011;6174;49.058;8.524;2023-02-18T08:35:43;2.40;;;2.13;;
12222;SDS011;6174;49.058;8.524;2023-02-18T08:38:11;2.20;;;2.10;;
12222;SDS011;6174;49.058;8.524;2023-02-18T08:40:38;1.90;;;1.80;;
12222;SDS011;6174;49.058;8.524;2023-02-18T08:43:06;1.80;;;1.70;;
12222;SDS011;6174;49.058;8.524;2023-02-18T08:45:33;1.93;;;1.83;;
12222;SDS011;6174;49.058;8.524;2023-02-18T08:48:02;2.30;;;2.10;;
12222;SDS011;6174;49.058;8.524;2023-02-18T08:50:29;2.03;;;1.90;;
12222;SDS011;6174;49.058;8.524;2023-02-18T08:53:02;1.90;;;1.80;;
12222;SDS011;6174;49.058;8.524;2023-02-18T08:55:29;2.00;;;1.80;;
12222;SDS011;6174;49.058;8.524;2023-02-18T08:57:56;1.77;;;1.67;;
12222;SDS011;6174;49.058;8.524;2023-02-18T09:00:23;1.70;;;1.60;;
12222;SDS011;6174;49.058;8.524;2023-02-18T09:02:50;2.27;;;1.57;;
12222;SDS011;6174;49.058;8.524;2023-02-18T09:05:17;1.80;;;1.60;;
12222;SDS011;6174;49.058;8.524;2023-02-18T09:07:44;1.80;;;1.70;;
12222;SDS011;6174;49.058;8.524;2023-02-18T09:10:12;1.50;;;1.40;;
12222;SDS011;6174;49.058;8.524;2023-02-18T09:12:39;1.60;;;1.50;;
12222;SDS011;6174;49.058;8.524;2023-02-18T09:15:06;2.13;;;1.70;;
12222;SDS011;6174;49.058;8.524;2023-02-18T09:17:33;2.27;;;1.37;;
12222;SDS011;6174;49.058;8.524;2023-02-18T09:20:03;1.77;;;1.67;;
12222;SDS011;6174;49.058;8.524;2023-02-18T09:22:31;1.60;;;1.50;;
12222;SDS011;6174;49.058;8.524;2023-02-18T09:24:58;1.90;;;1.60;;
12222;SDS011;6174;49.058;8.524;2023-02-18T09:27:26;2.40;;;1.57;;
12222;SDS011;6174;49.058;8.524;2023-02-18T09:29:53;3.00;;;1.60;;
12222;SDS011;6174;49.058;8.524;2023-02-18T09:32:20;1.90;;;1.80;;
12222;SDS011;6174;49.058;8.524;2023-02-18T09:34:47;2.07;;;1.47;;
12222;SDS011;6174;49.058;8.524;2023-02-18T09:37:14;1.60;;;1.50;;
12222;SDS011;6174;49.058;8.524;2023-02-18T09:39:40;2.50;;;1.70;;
12222;SDS011;6174;49.058;8.524;2023-02-18T09:42:10;2.10;;;1.70;;
12222;SDS011;6174;49.058;8.524;2023-02-18T09:44:46;1.80;;;1.70;;
12222;SDS011;6174;49.058;8.524;2023-02-18T09:47:17;1.70;;;1.60;;
12222;SDS011;6174;49.058;8.524;2023-02-18T09:49:48;1.60;;;1.50;;
12222;SDS011;6174;49.058;8.524;2023-02-18T09:52:20;2.03;;;1.70;;
12222;SDS011;6174;49.058;8.524;2023-02-18T09:54:49;1.80;;;1.70;;
12222;SDS011;6174;49.058;8.524;2023-02-18T09:57:18;1.70;;;1.57;;
12222;SDS011;6174;49.058;8.524;2023-02-18T09:59:51;2.00;;;1.60;;
12222;SDS011;6174;49.058;8.524;2023-02-18T10:02:25;1.77;;;1.67;;
12222;SDS011;6174;49.058;8.524;2023-02-18T10:04:53;4.40;;;2.00;;
12222;SDS011;6174;49.058;8.524;2023-02-18T10:07:22;1.70;;;1.60;;
12222;SDS011;6174;49.058;8.524;2023-02-18T10:09:52;2.53;;;1.87;;
12222;SDS011;6174;49.058;8.524;2023-02-18T10:12:22;1.80;;;1.70;;
12222;SDS011;6174;49.058;8.524;2023-02-18T10:14:52;1.50;;;1.40;;
12222;SDS011;6174;49.058;8.524;2023-02-18T10:17:20;2.20;;;1.90;;
12222;SDS011;6174;49.058;8.524;2023-02-18T10:19:50;1.77;;;1.67;;
12222;SDS011;6174;49.058;8.524;2023-02-18T10:22:18;1.87;;;1.63;;
12222;SDS011;6174;49.058;8.524;2023-02-18T10:24:47;1.80;;;1.70;;
12222;SDS011;6174;49.058;8.524;2023-02-18T10:27:18;1.67;;;1.57;;
12222;SDS011;6174;49.058;8.524;2023-02-18T10:29:49;1.70;;;1.60;;
12222;SDS011;6174;49.058;8.524;2023-02-18T10:32:18;2.80;;;1.83;;
12222;SDS011;6174;49.058;8.524;2023-02-18T10:34:50;1.87;;;1.77;;
12222;SDS011;6174;49.058;8.524;2023-02-18T10:37:25;1.97;;;1.87;;
12222;SDS011;6174;49.058;8.524;2023-02-18T10:40:05;6.07;;;2.13;;
12222;SDS011;6174;49.058;8.524;2023-02-18T10:42:39;1.80;;;1.70;;
12222;SDS011;6174;49.058;8.524;2023-02-18T10:45:20;1.80;;;1.70;;
12222;SDS011;6174;49.058;8.524;2023-02-18T10:47:59;1.53;;;1.43;;
12222;SDS011;6174;49.058;8.524;2023-02-18T10:50:45;2.40;;;1.57;;
12222;SDS011;6174;49.058;8.524;2023-02-18T10:53:13;2.20;;;1.60;;
12222;SDS011;6174;49.058;8.524;2023-02-18T10:55:43;2.10;;;1.90;;
12222;SDS011;6174;49.058;8.524;2023-02-18T10:58:26;2.40;;;2.03;;
12222;SDS011;6174;49.058;8.524;2023-02-18T11:00:57;3.10;;;1.90;;
12222;SDS011;6174;49.058;8.524;2023-02-18T11:03:37;2.20;;;1.73;;
12222;SDS011;6174;49.058;8.524;2023-02-18T11:06:05;2.20;;;2.00;;
12222;SDS011;6174;49.058;8.524;2023-02-18T11:08:43;2.50;;;2.07;;
12222;SDS011;6174;49.058;8.524;2023-02-18T11:11:12;2.70;;;1.90;;
12222;SDS011;6174;49.058;8.524;2023-02-18T11:13:41;3.57;;;2.03;;
12222;SDS011;6174;49.058;8.524;2023-02-18T11:16:10;2.50;;;2.30;;
12222;SDS011;6174;49.058;8.524;2023-02-18T11:18:38;2.40;;;2.20;;
12222;SDS011;6174;49.058;8.524;2023-02-18T11:21:17;2.60;;;1.80;;
12222;SDS011;6174;49.058;8.524;2023-02-18T11:23:50;2.70;;;2.00;;
12222;SDS011;6174;49.058;8.524;2023-02-18T11:26:20;2.70;;;2.37;;
12222;SDS011;6174;49.058;8.524;2023-02-18T11:28:51;3.13;;;2.20;;
12222;SDS011;6174;49.058;8.524;2023-02-18T11:31:26;2.50;;;2.30;;
12222;SDS011;6174;49.058;8.524;2023-02-18T11:34:09;2.53;;;2.13;;
12222;SDS011;6174;49.058;8.524;2023-02-18T11:36:41;4.63;;;3.30;;
12222;SDS011;6174;49.058;8.524;2023-02-18T11:39:13;3.93;;;2.50;;
12222;SDS011;6174;49.058;8.524;2023-02-18T11:41:45;2.73;;;2.53;;
12222;SDS011;6174;49.058;8.524;2023-02-18T11:44:18;2.63;;;2.30;;
12222;SDS011;6174;49.058;8.524;2023-02-18T11:46:59;3.87;;;1.80;;
12222;SDS011;6174;49.058;8.524;2023-02-18T11:49:28;2.50;;;2.30;;
12222;SDS011;6174;49.058;8.524;2023-02-18T11:52:03;2.70;;;2.07;;
12222;SDS011;6174;49.058;8.524;2023-02-18T11:54:39;2.60;;;2.40;;
12222;SDS011;6174;49.058;8.524;2023-02-18T11:57:09;2.60;;;2.40;;
12222;SDS011;6174;49.058;8.524;2023-02-18T11:59:39;3.07;;;2.60;;
12222;SDS011;6174;49.058;8.524;2023-02-18T12:02:12;2.87;;;2.63;;
12222;SDS011;6174;49.058;8.524;2023-02-18T12:04:55;2.40;;;2.20;;
12222;SDS011;6174;49.058;8.524;2023-02-18T12:07:27;3.13;;;2.10;;
12222;SDS011;6174;49.058;8.524;2023-02-18T12:10:02;2.20;;;1.80;;
12222;SDS011;6174;49.058;8.524;2023-02-18T12:12:37;4.13;;;2.23;;
12222;SDS011;6174;49.058;8.524;2023-02-18T12:15:11;2.57;;;2.27;;
12222;SDS011;6174;49.058;8.524;2023-02-18T12:17:47;2.70;;;2.50;;
12222;SDS011;6174;49.058;8.524;2023-02-18T12:20:31;2.70;;;2.50;;
12222;SDS011;6174;49.058;8.524;2023-02-18T12:23:13;4.27;;;2.30;;
12222;SDS011;6174;49.058;8.524;2023-02-18T12:25:50;3.90;;;2.47;;
12222;SDS011;6174;49.058;8.524;2023-02-18T12:28:27;3.07;;;2.77;;
12222;SDS011;6174;49.058;8.524;2023-02-18T12:31:17;3.00;;;2.43;;
12222;SDS011;6174;49.058;8.524;2023-02-18T12:34:00;3.47;;;3.17;;
12222;SDS011;6174;49.058;8.524;2023-02-18T12:36:36;2.43;;;2.23;;
12222;SDS011;6174;49.058;8.524;2023-02-18T12:39:19;3.43;;;2.40;;
12222;SDS011;6174;49.058;8.524;2023-02-18T12:41:58;3.20;;;2.90;;
12222;SDS011;6174;49.058;8.524;2023-02-18T12:44:38;3.33;;;3.03;;
12222;SDS011;6174;49.058;8.524;2023-02-18T12:47:14;3.57;;;2.60;;
12222;SDS011;6174;49.058;8.524;2023-02-18T12:50:05;2.90;;;2.60;;
12222;SDS011;6174;49.058;8.524;2023-02-18T12:53:10;2.27;;;2.03;;
12222;SDS011;6174;49.058;8.524;2023-02-18T12:55:50;3.53;;;2.40;;
12222;SDS011;6174;49.058;8.524;2023-02-18T12:58:29;2.63;;;2.17;;
12222;SDS011;6174;49.058;8.524;2023-02-18T13:01:12;2.40;;;2.20;;
12222;SDS011;6174;49.058;8.524;2023-02-18T13:07:28;2.30;;;1.87;;
12222;SDS011;6174;49.058;8.524;2023-02-18T13:10:11;2.70;;;2.17;;
12222;SDS011;6174;49.058;8.524;2023-02-18T13:12:54;2.90;;;2.30;;
12222;SDS011;6174;49.058;8.524;2023-02-18T13:15:30;2.77;;;2.47;;
12222;SDS011;6174;49.058;8.524;2023-02-18T13:18:03;2.40;;;2.20;;
12222;SDS011;6174;49.058;8.524;2023-02-18T13:20:36;2.87;;;2.30;;
12222;SDS011;6174;49.058;8.524;2023-02-18T13:23:07;2.50;;;2.30;;
12222;SDS011;6174;49.058;8.524;2023-02-18T13:25:42;2.97;;;2.20;;
12222;SDS011;6174;49.058;8.524;2023-02-18T13:28:12;1.60;;;1.50;;
12222;SDS011;6174;49.058;8.524;2023-02-18T13:30:46;2.43;;;1.80;;
12222;SDS011;6174;49.058;8.524;2023-02-18T13:33:20;1.80;;;1.70;;
12222;SDS011;6174;49.058;8.524;2023-02-18T13:35:57;1.63;;;1.53;;
12222;SDS011;6174;49.058;8.524;2023-02-18T13:38:41;2.20;;;2.00;;
12222;SDS011;6174;49.058;8.524;2023-02-18T13:41:16;1.97;;;1.60;;
12222;SDS011;6174;49.058;8.524;2023-02-18T13:43:44;1.60;;;1.50;;
12222;SDS011;6174;49.058;8.524;2023-02-18T13:46:11;1.90;;;1.50;;
12222;SDS011;6174;49.058;8.524;2023-02-18T13:48:44;1.70;;;1.60;;
12222;SDS011;6174;49.058;8.524;2023-02-18T13:51:14;1.40;;;1.30;;
12222;SDS011;6174;49.058;8.524;2023-02-18T13:53:43;1.73;;;1.63;;
12222;SDS011;6174;49.058;8.524;2023-02-18T13:56:20;1.77;;;1.63;;
12222;SDS011;6174;49.058;8.524;2023-02-18T13:58:53;2.87;;;1.37;;
12222;SDS011;6174;49.058;8.524;2023-02-18T14:01:30;1.57;;;1.47;;
12222;SDS011;6174;49.058;8.524;2023-02-18T14:15:47;1.60;;;1.50;;
12222;SDS011;6174;49.058;8.524;2023-02-18T14:18:25;1.77;;;1.50;;
12222;SDS011;6174;49.058;8.524;2023-02-18T14:21:04;2.13;;;1.57;;
12222;SDS011;6174;49.058;8.524;2023-02-18T14:23:55;3.33;;;1.97;;
12222;SDS011;6174;49.058;8.524;2023-02-18T14:26:27;1.87;;;1.57;;
12222;SDS011;6174;49.058;8.524;2023-02-18T14:28:58;2.33;;;1.70;;
12222;SDS011;6174;49.058;8.524;2023-02-18T14:37:22;1.60;;;1.50;;
12222;SDS011;6174;49.058;8.524;2023-02-18T14:40:20;1.53;;;1.30;;
12222;SDS011;6174;49.058;8.524;2023-02-18T14:43:07;2.90;;;1.50;;
12222;SDS011;6174;49.058;8.524;2023-02-18T14:45:49;1.47;;;1.33;;
12222;SDS011;6174;49.058;8.524;2023-02-18T14:48:40;1.40;;;1.30;;
12222;SDS011;6174;49.058;8.524;2023-02-18T14:51:14;1.50;;;1.40;;
12222;SDS011;6174;49.058;8.524;2023-02-18T14:53:43;2.50;;;1.60;;
12222;SDS011;6174;49.058;8.524;2023-02-18T14:56:12;1.30;;;1.27;;
12222;SDS011;6174;49.058;8.524;2023-02-18T14:58:45;1.30;;;1.20;;
12222;SDS011;6174;49.058;8.524;2023-02-18T15:01:15;0.67;;;0.67;;
12222;SDS011;6174;49.058;8.524;2023-02-18T15:03:45;1.30;;;1.20;;
12222;SDS011;6174;49.058;8.524;2023-02-18T15:06:22;1.17;;;1.13;;
12222;SDS011;6174;49.058;8.524;2023-02-18T15:08:51;1.40;;;1.30;;
12222;SDS011;6174;49.058;8.524;2023-02-18T15:11:18;1.13;;;1.10;;
12222;SDS011;6174;49.058;8.524;2023-02-18T15:13:48;1.27;;;1.20;;
12222;SDS011;6174;49.058;8.524;2023-02-18T15:16:17;1.40;;;1.30;;
12222;SDS011;6174;49.058;8.524;2023-02-18T15:18:48;2.23;;;1.40;;
12222;SDS011;6174;49.058;8.524;2023-02-18T15:21:19;1.43;;;1.20;;
12222;SDS011;6174;49.058;8.524;2023-02-18T15:23:54;1.40;;;1.30;;
12222;SDS011;6174;49.058;8.524;2023-02-18T15:26:30;1.60;;;1.50;;
12222;SDS011;6174;49.058;8.524;2023-02-18T15:28:59;1.47;;;1.37;;
12222;SDS011;6174;49.058;8.524;2023-02-18T15:31:28;1.57;;;1.40;;
12222;SDS011;6174;49.058;8.524;2023-02-18T15:33:56;1.80;;;1.37;;
12222;SDS011;6174;49.058;8.524;2023-02-18T15:36:24;1.87;;;1.30;;
12222;SDS011;6174;49.058;8.524;2023-02-18T15:38:51;1.33;;;1.23;;
12222;SDS011;6174;49.058;8.524;2023-02-18T15:41:18;1.63;;;1.53;;
12222;SDS011;6174;49.058;8.524;2023-02-18T15:43:50;1.10;;;1.10;;
12222;SDS011;6174;49.058;8.524;2023-02-18T15:46:20;1.50;;;1.40;;
12222;SDS011;6174;49.058;8.524;2023-02-18T15:48:50;1.40;;;1.30;;
12222;SDS011;6174;49.058;8.524;2023-02-18T15:51:19;2.87;;;1.50;;
12222;SDS011;6174;49.058;8.524;2023-02-18T15:53:48;1.80;;;1.60;;
12222;SDS011;6174;49.058;8.524;2023-02-18T15:56:20;1.43;;;1.33;;
12222;SDS011;6174;49.058;8.524;2023-02-18T15:58:55;1.33;;;1.30;;
12222;SDS011;6174;49.058;8.524;2023-02-18T16:01:35;1.50;;;1.40;;
12222;SDS011;6174;49.058;8.524;2023-02-18T16:04:04;1.70;;;1.60;;
12222;SDS011;6174;49.058;8.524;2023-02-18T16:06:34;2.67;;;1.60;;
12222;SDS011;6174;49.058;8.524;2023-02-18T16:09:06;1.67;;;1.57;;
12222;SDS011;6174;49.058;8.524;2023-02-18T16:11:39;1.60;;;1.50;;
12222;SDS011;6174;49.058;8.524;2023-02-18T16:14:19;2.27;;;1.57;;
12222;SDS011;6174;49.058;8.524;2023-02-18T16:19:45;1.50;;;1.40;;
12222;SDS011;6174;49.058;8.524;2023-02-18T16:22:18;1.60;;;1.50;;
12222;SDS011;6174;49.058;8.524;2023-02-18T16:24:53;1.43;;;1.07;;
12222;SDS011;6174;49.058;8.524;2023-02-18T16:27:26;2.13;;;1.60;;
12222;SDS011;6174;49.058;8.524;2023-02-18T16:30:03;2.33;;;1.90;;
12222;SDS011;6174;49.058;8.524;2023-02-18T16:32:41;2.50;;;2.30;;
12222;SDS011;6174;49.058;8.524;2023-02-18T16:35:09;2.77;;;2.57;;
12222;SDS011;6174;49.058;8.524;2023-02-18T16:37:36;2.70;;;1.60;;
12222;SDS011;6174;49.058;8.524;2023-02-18T16:40:03;1.70;;;1.60;;
12222;SDS011;6174;49.058;8.524;2023-02-18T16:42:42;2.00;;;1.90;;
12222;SDS011;6174;49.058;8.524;2023-02-18T16:45:10;1.87;;;1.70;;
12222;SDS011;6174;49.058;8.524;2023-02-18T16:47:37;1.60;;;1.50;;
12222;SDS011;6174;49.058;8.524;2023-02-18T16:50:08;2.93;;;1.40;;
12222;SDS011;6174;49.058;8.524;2023-02-18T16:52:41;2.50;;;1.80;;
12222;SDS011;6174;49.058;8.524;2023-02-18T16:55:10;2.00;;;1.90;;
12222;SDS011;6174;49.058;8.524;2023-02-18T16:57:42;2.10;;;1.87;;
12222;SDS011;6174;49.058;8.524;2023-02-18T17:00:10;1.67;;;1.57;;
12222;SDS011;6174;49.058;8.524;2023-02-18T17:02:37;2.00;;;1.80;;
12222;SDS011;6174;49.058;8.524;2023-02-18T17:05:05;1.20;;;1.10;;
12222;SDS011;6174;49.058;8.524;2023-02-18T17:07:32;3.00;;;1.90;;
12222;SDS011;6174;49.058;8.524;2023-02-18T17:10:00;1.80;;;1.70;;
12222;SDS011;6174;49.058;8.524;2023-02-18T17:12:27;1.20;;;1.20;;
12222;SDS011;6174;49.058;8.524;2023-02-18T17:14:54;1.80;;;1.70;;
12222;SDS011;6174;49.058;8.524;2023-02-18T17:17:21;1.97;;;1.50;;
12222;SDS011;6174;49.058;8.524;2023-02-18T17:19:47;4.27;;;2.50;;
12222;SDS011;6174;49.058;8.524;2023-02-18T17:22:15;2.20;;;2.00;;
12222;SDS011;6174;49.058;8.524;2023-02-18T17:24:42;2.13;;;2.03;;
12222;SDS011;6174;49.058;8.524;2023-02-18T17:27:09;1.77;;;1.67;;
12222;SDS011;6174;49.058;8.524;2023-02-18T17:29:36;2.50;;;2.27;;
12222;SDS011;6174;49.058;8.524;2023-02-18T17:32:03;2.20;;;2.00;;
12222;SDS011;6174;49.058;8.524;2023-02-18T17:34:32;2.03;;;1.83;;
12222;SDS011;6174;49.058;8.524;2023-02-18T17:37:01;3.00;;;1.93;;
12222;SDS011;6174;49.058;8.524;2023-02-18T17:39:29;2.17;;;1.80;;
12222;SDS011;6174;49.058;8.524;2023-02-18T17:41:56;2.27;;;2.10;;
12222;SDS011;6174;49.058;8.524;2023-02-18T17:44:23;2.00;;;1.90;;
12222;SDS011;6174;49.058;8.524;2023-02-18T17:46:50;2.30;;;2.10;;
12222;SDS011;6174;49.058;8.524;2023-02-18T17:49:18;2.07;;;1.97;;
12222;SDS011;6174;49.058;8.524;2023-02-18T17:51:46;2.10;;;2.00;;
12222;SDS011;6174;49.058;8.524;2023-02-18T17:54:14;2.23;;;2.10;;
12222;SDS011;6174;49.058;8.524;2023-02-18T17:56:43;2.30;;;2.10;;
12222;SDS011;6174;49.058;8.524;2023-02-18T17:59:11;1.80;;;1.70;;
12222;SDS011;6174;49.058;8.524;2023-02-18T18:01:38;2.17;;;1.97;;
12222;SDS011;6174;49.058;8.524;2023-02-18T18:04:05;2.10;;;2.00;;
12222;SDS011;6174;49.058;8.524;2023-02-18T18:06:35;1.57;;;1.43;;
12222;SDS011;6174;49.058;8.524;2023-02-18T18:09:02;2.00;;;1.90;;
12222;SDS011;6174;49.058;8.524;2023-02-18T18:11:29;2.00;;;1.90;;
12222;SDS011;6174;49.058;8.524;2023-02-18T18:13:58;2.10;;;1.90;;
12222;SDS011;6174;49.058;8.524;2023-02-18T18:16:25;2.10;;;1.90;;
12222;SDS011;6174;49.058;8.524;2023-02-18T18:18:52;2.00;;;1.90;;
12222;SDS011;6174;49.058;8.524;2023-02-18T18:21:20;2.33;;;2.13;;
12222;SDS011;6174;49.058;8.524;2023-02-18T18:23:48;2.30;;;2.10;;
12222;SDS011;6174;49.058;8.524;2023-02-18T18:26:15;3.23;;;2.03;;
12222;SDS011;6174;49.058;8.524;2023-02-18T18:28:42;2.17;;;2.07;;
12222;SDS011;6174;49.058;8.524;2023-02-18T18:31:11;2.20;;;2.00;;
12222;SDS011;6174;49.058;8.524;2023-02-18T18:33:39;2.87;;;2.57;;
12222;SDS011;6174;49.058;8.524;2023-02-18T18:36:07;2.43;;;2.23;;
12222;SDS011;6174;49.058;8.524;2023-02-18T18:38:34;3.17;;;2.17;;
12222;SDS011;6174;49.058;8.524;2023-02-18T18:41:01;2.43;;;2.23;;
12222;SDS011;6174;49.058;8.524;2023-02-18T18:43:28;2.43;;;2.17;;
12222;SDS011;6174;49.058;8.524;2023-02-18T18:45:56;2.43;;;2.33;;
12222;SDS011;6174;49.058;8.524;2023-02-18T18:48:24;2.67;;;2.47;;
12222;SDS011;6174;49.058;8.524;2023-02-18T18:50:51;4.83;;;3.30;;
12222;SDS011;6174;49.058;8.524;2023-02-18T18:53:20;2.97;;;2.57;;
12222;SDS011;6174;49.058;8.524;2023-02-18T18:55:49;2.60;;;2.40;;
12222;SDS011;6174;49.058;8.524;2023-02-18T18:58:17;2.77;;;2.53;;
12222;SDS011;6174;49.058;8.524;2023-02-18T19:00:48;2.77;;;2.57;;
12222;SDS011;6174;49.058;8.524;2023-02-18T19:03:17;3.23;;;2.70;;
12222;SDS011;6174;49.058;8.524;2023-02-18T19:05:46;2.50;;;2.30;;
12222;SDS011;6174;49.058;8.524;2023-02-18T19:08:14;3.10;;;2.90;;
12222;SDS011;6174;49.058;8.524;2023-02-18T19:10:44;2.80;;;2.60;;
12222;SDS011;6174;49.058;8.524;2023-02-18T19:13:12;3.10;;;2.40;;
12222;SDS011;6174;49.058;8.524;2023-02-18T19:15:41;2.37;;;2.27;;
12222;SDS011;6174;49.058;8.524;2023-02-18T19:18:09;2.60;;;2.40;;
12222;SDS011;6174;49.058;8.524;2023-02-18T19:20:39;2.40;;;2.20;;
12222;SDS011;6174;49.058;8.524;2023-02-18T19:23:08;3.87;;;2.30;;
12222;SDS011;6174;49.058;8.524;2023-02-18T19:25:35;2.30;;;2.10;;
12222;SDS011;6174;49.058;8.524;2023-02-18T19:28:02;2.40;;;2.20;;
12222;SDS011;6174;49.058;8.524;2023-02-18T19:30:30;2.50;;;2.30;;
12222;SDS011;6174;49.058;8.524;2023-02-18T19:32:59;2.80;;;2.60;;
12222;SDS011;6174;49.058;8.524;2023-02-18T19:35:28;3.00;;;2.80;;
12222;SDS011;6174;49.058;8.524;2023-02-18T19:37:55;3.07;;;2.87;;
12222;SDS011;6174;49.058;8.524;2023-02-18T19:40:24;3.03;;;2.70;;
12222;SDS011;6174;49.058;8.524;2023-02-18T19:42:53;2.93;;;2.73;;
12222;SDS011;6174;49.058;8.524;2023-02-18T19:45:20;3.10;;;2.90;;
12222;SDS011;6174;49.058;8.524;2023-02-18T19:47:51;3.57;;;3.27;;
12222;SDS011;6174;49.058;8.524;2023-02-18T19:50:18;2.70;;;2.50;;
12222;SDS011;6174;49.058;8.524;2023-02-18T19:52:45;3.40;;;3.10;;
12222;SDS011;6174;49.058;8.524;2023-02-18T19:55:11;3.60;;;3.30;;
12222;SDS011;6174;49.058;8.524;2023-02-18T19:57:40;3.50;;;3.20;;
12222;SDS011;6174;49.058;8.524;2023-02-18T20:00:07;3.53;;;3.27;;
12222;SDS011;6174;49.058;8.524;2023-02-18T20:02:34;3.60;;;3.40;;
12222;SDS011;6174;49.058;8.524;2023-02-18T20:05:02;3.53;;;3.23;;
12222;SDS011;6174;49.058;8.524;2023-02-18T20:07:29;3.97;;;3.50;;
12222;SDS011;6174;49.058;8.524;2023-02-18T20:09:56;4.67;;;3.80;;
12222;SDS011;6174;49.058;8.524;2023-02-18T20:12:22;3.50;;;3.20;;
12222;SDS011;6174;49.058;8.524;2023-02-18T20:14:51;3.90;;;3.60;;
12222;SDS011;6174;49.058;8.524;2023-02-18T20:17:17;3.63;;;3.33;;
12222;SDS011;6174;49.058;8.524;2023-02-18T20:19:44;3.90;;;3.50;;
12222;SDS011;6174;49.058;8.524;2023-02-18T20:22:11;4.03;;;3.63;;
12222;SDS011;6174;49.058;8.524;2023-02-18T20:24:38;4.03;;;3.60;;
12222;SDS011;6174;49.058;8.524;2023-02-18T20:27:05;4.17;;;3.77;;
12222;SDS011;6174;49.058;8.524;2023-02-18T20:29:33;3.80;;;3.50;;
12222;SDS011;6174;49.058;8.524;2023-02-18T20:32:02;3.83;;;3.53;;
12222;SDS011;6174;49.058;8.524;2023-02-18T20:34:29;4.23;;;3.83;;
12222;SDS011;6174;49.058;8.524;2023-02-18T20:36:57;3.70;;;3.40;;
12222;SDS011;6174;49.058;8.524;2023-02-18T20:39:25;4.00;;;3.70;;
12222;SDS011;6174;49.058;8.524;2023-02-18T20:41:51;3.83;;;3.53;;
12222;SDS011;6174;49.058;8.524;2023-02-18T20:44:18;3.63;;;3.40;;
12222;SDS011;6174;49.058;8.524;2023-02-18T20:46:48;3.60;;;3.30;;
12222;SDS011;6174;49.058;8.524;2023-02-18T20:49:17;3.87;;;3.57;;
12222;SDS011;6174;49.058;8.524;2023-02-18T20:51:44;3.93;;;3.40;;
12222;SDS011;6174;49.058;8.524;2023-02-18T20:54:12;4.23;;;3.80;;
12222;SDS011;6174;49.058;8.524;2023-02-18T20:56:43;3.90;;;3.60;;
12222;SDS011;6174;49.058;8.524;2023-02-18T20:59:12;3.50;;;3.30;;
12222;SDS011;6174;49.058;8.524;2023-02-18T21:01:39;3.80;;;3.50;;
12222;SDS011;6174;49.058;8.524;2023-02-18T21:04:08;3.60;;;3.30;;
12222;SDS011;6174;49.058;8.524;2023-02-18T21:06:37;4.57;;;4.17;;
12222;SDS011;6174;49.058;8.524;2023-02-18T21:09:04;4.00;;;3.70;;
12222;SDS011;6174;49.058;8.524;2023-02-18T21:11:31;4.63;;;3.70;;
12222;SDS011;6174;49.058;8.524;2023-02-18T21:13:57;4.30;;;3.90;;
12222;SDS011;6174;49.058;8.524;2023-02-18T21:16:26;4.17;;;3.80;;
12222;SDS011;6174;49.058;8.524;2023-02-18T21:18:56;4.00;;;3.70;;
12222;SDS011;6174;49.058;8.524;2023-02-18T21:21:23;3.73;;;3.43;;
12222;SDS011;6174;49.058;8.524;2023-02-18T21:23:51;3.33;;;3.13;;
12222;SDS011;6174;49.058;8.524;2023-02-18T21:26:19;3.63;;;3.33;;
12222;SDS011;6174;49.058;8.524;2023-02-18T21:28:47;3.60;;;3.30;;
12222;SDS011;6174;49.058;8.524;2023-02-18T21:31:15;4.20;;;3.80;;
12222;SDS011;6174;49.058;8.524;2023-02-18T21:33:42;3.53;;;3.23;;
12222;SDS011;6174;49.058;8.524;2023-02-18T21:36:10;3.70;;;3.40;;
12222;SDS011;6174;49.058;8.524;2023-02-18T21:38:36;5.80;;;4.40;;
12222;SDS011;6174;49.058;8.524;2023-02-18T21:41:05;4.20;;;3.80;;
12222;SDS011;6174;49.058;8.524;2023-02-18T21:43:32;4.17;;;3.70;;